Weather observations for the past three days for
Wahpeton, Harry Stern Airport
Imperial (Metric)
Date Time (cdt) Wind (mph) Vis. (mi.) Weather Sky Cond. Temperature (ºF) Relative Humidity Wind Chill (°F) Heat Index (°F) Pressure Precipitation (in)
Air Dwpt 6 hour altimeter (in) sea level (mb) 1 hr 3 hr 6 hr
Max. Min.
06 17:15 S 9 10.00 Fair CLR 80.6 80.6 100% 89 29.94 0.0
06 16:55 S 10 10.00 Thunderstorm in Vicinity CLR 78.8 78.8 100% 83 29.93 0.0 0.01
06 16:35 S 13 9.00 Fair CLR 77 77 100% 78 29.93 0.0
06 16:15 S 7 8.00 Fair CLR 77 77 100% 78 29.95 0.0
06 15:55 S 8 2.50 Light Rain Fog/Mist CLR 75.2 75.2 100% 73 29.96 0.0
06 15:35 S 13 2.00 Light Rain Fog/Mist CLR 77 77 100% 78 29.97 0.0
06 15:15 S 14 10.00 Fair CLR 78.8 78.8 100% 83 29.97 0.0
06 14:55 S 12 10.00 Fair CLR 78.8 78.8 100% 83 29.96 0.0
06 14:35 S 13 10.00 Fair CLR 80.6 80.6 100% 89 29.95 0.0
06 14:15 S 13 10.00 Fair CLR 78.8 78.8 100% 83 29.96 0.0
06 13:55 S 15 10.00 Fair CLR 78.8 78.8 100% 83 29.97 0.0
06 13:15 S 13 10.00 Fair CLR 78.8 78.8 100% 83 29.97 0.0
06 12:55 SE 12 10.00 Fair CLR 78.8 78.8 100% 83 29.97 0.0
06 12:35 SE 12 G 18 10.00 Fair CLR 78.8 78.8 100% 83 29.97 0.0
06 12:15 SE 12 10.00 Fair CLR 78.8 78.8 100% 83 29.98 0.0
06 11:35 SE 10 10.00 Fair CLR 77 77 100% 78 29.99 0.0
06 11:15 SE 12 9.00 Fair CLR 77 77 100% 78 29.99 0.0
06 10:55 SE 13 9.00 Fair CLR 75.2 75.2 100% 73 29.99 0.0
06 10:35 SE 10 9.00 NULL NULL 75.2 75.2 100% 73 29.99 0.0
06 10:15 SE 13 5.00 Unknown Precip Fog/Mist NULL 75.2 75.2 100% 73 29.99 0.0
06 09:35 SE 10 10.00 Fair CLR 75.2 75.2 100% 73 29.99 0.0
06 09:15 SE 8 10.00 Fair CLR 75.2 75.2 100% 73 29.99 0.0
06 08:55 SE 8 10.00 Fair CLR 75.2 75.2 100% 73 29.99 0.0
06 08:35 SE 7 10.00 Fair CLR 73.4 73.4 100% 29.99 0.0
06 08:15 SE 9 10.00 Fair CLR 73.4 73.4 100% 29.99 0.0
06 07:55 SE 6 10.00 Fair CLR 71.6 71.6 100% 29.98 0.0
06 07:35 SE 6 10.00 Fair CLR 71.6 71.6 100% 29.98 0.0
06 07:15 SE 6 10.00 Fair CLR 71.6 71.6 100% 29.97 0.0
06 06:55 SE 6 10.00 Fair CLR 71.6 71.6 100% 29.98 0.0
06 06:15 SE 8 10.00 Fair CLR 73.4 73.4 100% 29.97 0.0
06 05:55 SE 8 10.00 Fair CLR 73.4 73.4 100% 29.98 0.0
06 05:15 SE 6 10.00 Fair CLR 71.6 71.6 100% 29.99 0.0
06 04:55 SE 6 10.00 Fair CLR 71.6 71.6 100% 29.98 0.0
06 04:35 SE 6 10.00 Fair CLR 71.6 71.6 100% 29.98 0.0
06 04:15 SE 6 10.00 Fair CLR 71.6 71.6 100% 29.97 0.0
06 03:55 SE 7 10.00 Fair CLR 71.6 71.6 100% 29.97 0.0
06 03:35 SE 6 10.00 Fair CLR 71.6 71.6 100% 29.96 0.0
06 03:15 SE 7 10.00 Fair CLR 71.6 71.6 100% 29.96 0.0
06 02:55 SE 8 10.00 Fair CLR 71.6 71.6 100% 29.96 0.0
06 02:35 SE 6 10.00 Fair CLR 71.6 71.6 100% 29.96 0.0
06 02:15 SE 9 10.00 Fair CLR 71.6 71.6 100% 29.96 0.0
06 01:55 SE 9 10.00 Fair CLR 73.4 73.4 100% 29.97 0.0
06 01:35 SE 10 10.00 Fair CLR 73.4 73.4 100% 29.96 0.0
06 01:15 SE 10 10.00 Fair CLR 73.4 73.4 100% 29.97 0.0
06 00:55 SE 13 10.00 Fair CLR 75.2 75.2 100% 73 29.97 0.0
06 00:35 SE 12 10.00 Fair CLR 75.2 75.2 100% 73 29.98 0.0
06 00:15 E 9 10.00 Fair CLR 75.2 75.2 100% 73 29.97 0.0
05 23:55 E 10 G 16 10.00 Fair CLR 75.2 75.2 100% 73 29.97 0.0
05 23:35 SE 8 10.00 Fair CLR 75.2 75.2 100% 73 29.97 0.0
05 23:15 E 7 10.00 Fair CLR 75.2 75.2 100% 73 29.98 0.0
05 22:55 SE 7 10.00 Fair CLR 77 75.2 94% 78 29.98 0.0
05 22:35 SE 8 10.00 Fair CLR 77 77 100% 78 29.98 0.0
05 22:15 SE 7 10.00 Fair CLR 77 77 100% 78 29.98 0.0
05 21:55 SE 6 10.00 Fair CLR 77 77 100% 78 29.98 0.0
05 21:35 SE 7 10.00 Fair CLR 78.8 77 94% 83 29.97 0.0
05 21:15 E 8 10.00 Fair CLR 78.8 75.2 89% 82 29.96 0.0
05 20:55 E 8 10.00 Fair CLR 78.8 73.4 84% 82 29.95 0.0
05 20:35 E 7 10.00 Fair CLR 78.8 73.4 84% 82 29.95 0.0
05 20:15 SE 8 10.00 Fair CLR 80.6 71.6 74% 85 29.94 0.0
05 19:55 E 6 10.00 Fair CLR 80.6 71.6 74% 85 29.94 0.0
05 19:35 SE 6 10.00 Fair CLR 82.4 69.8 66% 86 29.95 0.0
05 19:15 SE 9 10.00 Fair CLR 82.4 69.8 66% 86 29.94 0.0
05 18:55 SE 10 10.00 Fair CLR 84.2 68 58% 87 29.92 0.0
05 18:15 SE 15 10.00 Fair CLR 86 66.2 52% 88 29.9 0.0
05 17:55 SE 15 10.00 Fair CLR 87.8 66.2 49% 90 29.9 0.0
05 17:35 E 14 10.00 Fair CLR 87.8 66.2 49% 90 29.91 0.0
05 16:55 SE 16 10.00 Fair CLR 87.8 68 52% 91 29.89 0.0
05 16:35 E 13 10.00 Fair CLR 87.8 68 52% 91 29.89 0.0
05 16:15 SE 15 G 24 10.00 Fair CLR 87.8 64.4 46% 89 29.9 0.0
05 15:55 SE 14 10.00 Fair CLR 87.8 66.2 49% 90 29.92 0.0
05 15:35 E 13 10.00 Fair CLR 87.8 64.4 46% 89 29.93 0.0
05 15:15 E 14 10.00 Fair CLR 86 66.2 52% 88 29.93 0.0
05 14:55 E 10 G 20 10.00 Fair CLR 86 66.2 52% 88 29.94 0.0
05 12:55 SE 9 G 18 10.00 Fair CLR 86 66.2 52% 88 29.96 0.0
05 12:35 SE 12 10.00 Fair CLR 84.2 68 58% 87 29.96 0.0
05 12:15 SE 9 G 17 10.00 Fair CLR 82.4 68 62% 85 29.97 0.0
05 11:55 SE 10 G 16 10.00 Fair CLR 80.6 69.8 70% 84 29.98 0.0
05 11:35 SE 10 10.00 Fair CLR 80.6 73.4 79% 85 29.98 0.0
05 11:15 SE 9 G 15 10.00 Fair CLR 78.8 78.8 100% 83 29.98 0.0
05 10:55 SE 8 G 15 10.00 Fair CLR 77 77 100% 78 29.99 0.0
05 10:35 SE 12 10.00 Fair CLR 75.2 75.2 100% 73 29.99 0.0
05 10:15 SE 10 10.00 Fair CLR 73.4 73.4 100% 30 0.0
05 09:55 SE 10 10.00 Fair CLR 71.6 71.6 100% 30 0.0
05 09:35 E 8 10.00 Fair CLR 69.8 69.8 100% 29.99 0.0
05 09:15 SE 8 G 15 10.00 Fair CLR 68 68 100% 29.99 0.0
05 08:55 E 10 10.00 Fair CLR 68 68 100% 29.99 0.0
05 08:35 E 10 10.00 Fair CLR 66.2 66.2 100% 29.99 0.0
05 08:15 E 9 10.00 Fair CLR 66.2 66.2 100% 29.98 0.0
05 07:55 SE 8 10.00 Fair CLR 66.2 66.2 100% 29.98 0.0
05 06:35 E 8 10.00 Fair CLR 66.2 66.2 100% 29.95 0.0
05 06:15 SE 8 10.00 Fair CLR 66.2 66.2 100% 29.96 0.0
05 05:55 SE 6 10.00 Fair CLR 66.2 66.2 100% 29.96 0.0
05 05:35 SE 7 10.00 NULL NULL 66.2 66.2 100% 29.97 0.0
05 05:15 SE 8 10.00 NULL NULL 66.2 66.2 100% 29.96 0.0
05 04:55 SE 7 G 14 10.00 Mostly Cloudy BKN075 66.2 66.2 100% 29.96 0.0
05 04:35 SE 10 9.00 Mostly Cloudy BKN075 66.2 66.2 100% 29.93 0.0
05 04:15 SE 10 10.00 A Few Clouds FEW075 66.2 66.2 100% 29.93 0.0
05 03:35 E 7 10.00 Fair CLR 66.2 66.2 100% 29.93 0.0
05 03:15 E 10 10.00 Fair CLR 66.2 66.2 100% 29.94 0.0
05 02:55 E 8 10.00 Fair CLR 66.2 66.2 100% 29.95 0.0
05 02:35 SE 7 10.00 Fair CLR 68 68 100% 29.96 0.0
05 02:15 SE 9 G 15 10.00 Fair CLR 68 68 100% 29.95 0.0
05 01:55 E 10 10.00 Fair CLR 68 68 100% 29.95 0.0
05 01:15 E 10 10.00 Fair CLR 69.8 69.8 100% 29.96 0.0
05 00:55 SE 9 G 15 10.00 Fair CLR 69.8 69.8 100% 29.95 0.0
05 00:35 E 9 10.00 Fair CLR 69.8 69.8 100% 29.95 0.0
05 00:15 SE 9 10.00 Fair CLR 69.8 69.8 100% 29.95 0.0
04 23:55 E 8 G 14 10.00 Fair CLR 71.6 71.6 100% 29.95 0.0
04 23:35 SE 7 10.00 Fair CLR 71.6 71.6 100% 29.95 0.0
04 23:15 E 7 10.00 Fair CLR 71.6 71.6 100% 29.95 0.0
04 22:55 E 8 10.00 Fair CLR 71.6 71.6 100% 29.95 0.0
04 22:35 E 9 10.00 Fair CLR 73.4 73.4 100% 29.94 0.0
04 22:15 E 9 10.00 Fair CLR 73.4 73.4 100% 29.94 0.0
04 21:55 E 8 10.00 Fair CLR 73.4 73.4 100% 29.94 0.0
04 21:35 E 6 10.00 Fair CLR 73.4 73.4 100% 29.94 0.0
04 21:15 E 6 10.00 Fair CLR 75.2 75.2 100% 73 29.94 0.0
04 20:55 E 5 10.00 Fair CLR 77 75.2 94% 78 29.94 0.0
04 20:35 E 6 10.00 Fair CLR 77 73.4 89% 78 29.92 0.0
04 20:15 E 5 10.00 Fair CLR 78.8 69.8 74% 81 29.92 0.0
04 19:55 E 7 10.00 Fair CLR 80.6 69.8 70% 84 29.9 0.0
04 19:35 E 7 10.00 Fair CLR 82.4 68 62% 85 29.89 0.0
04 19:15 E 8 10.00 Fair CLR 82.4 68 62% 85 29.89 0.0
04 18:55 E 8 10.00 Fair CLR 84.2 66.2 55% 87 29.89 0.0
04 18:35 E 7 G 15 10.00 Fair CLR 86 66.2 52% 88 29.9 0.0
04 18:15 E 7 10.00 Fair CLR 87.8 66.2 49% 90 29.89 0.0
04 17:55 E 9 10.00 Fair CLR 86 66.2 52% 88 29.89 0.0
04 17:35 E 7 10.00 Fair CLR 87.8 64.4 46% 89 29.89 0.0
04 17:15 E 5 10.00 Fair CLR 89.6 64.4 43% 91 29.89 0.0
04 16:55 E 9 10.00 Fair CLR 89.6 64.4 43% 91 29.89 0.0
04 16:35 E 8 10.00 Fair CLR 89.6 64.4 43% 91 29.89 0.0
04 16:15 NE 6 10.00 Fair CLR 89.6 64.4 43% 91 29.89 0.0
04 15:55 Vrbl 5 G 12 10.00 Fair CLR 87.8 64.4 46% 89 29.9 0.0
04 15:35 Vrbl 6 10.00 Fair CLR 87.8 66.2 49% 90 29.9 0.0
04 15:15 Vrbl 7 10.00 Fair CLR 87.8 66.2 49% 90 29.91 0.0
04 14:55 E 9 10.00 Fair CLR 86 68 55% 89 29.91 0.0
04 14:35 SE 8 10.00 Fair CLR 87.8 68 52% 91 29.91 0.0
04 14:15 Calm 10.00 Fair CLR 86 68 55% 89 29.91 0.0
04 13:55 E 7 10.00 Fair CLR 84.2 68 58% 87 29.91 0.0
04 13:35 SE 8 10.00 Fair CLR 84.2 69.8 62% 88 29.92 0.0
04 13:15 Vrbl 6 G 16 10.00 Fair CLR 82.4 71.6 70% 87 29.92 0.0
04 12:55 E 10 10.00 Fair CLR 80.6 80.6 100% 89 29.92 0.0
04 12:35 E 8 10.00 Fair CLR 78.8 78.8 100% 83 29.92 0.0
04 12:15 E 10 10.00 Fair CLR 77 77 100% 78 29.93 0.0
04 11:55 NE 8 10.00 Fair CLR 75.2 75.2 100% 73 29.93 0.0
04 11:35 E 8 10.00 Fair CLR 75.2 75.2 100% 73 29.92 0.0
04 11:15 NE 8 10.00 Fair CLR 75.2 75.2 100% 73 29.92 0.0
04 10:15 N 10 10.00 Fair CLR 71.6 71.6 100% 29.91 0.0
04 09:55 NE 6 10.00 Fair CLR 69.8 69.8 100% 29.91 0.0
04 09:35 N 6 10.00 Fair CLR 68 68 100% 29.91 0.0
04 09:15 NE 9 10.00 Fair CLR 68 68 100% 29.9 0.0
04 08:55 NE 7 10.00 Fair CLR 66.2 66.2 100% 29.9 0.0
04 08:35 N 9 10.00 Fair CLR 64.4 64.4 100% 29.9 0.0
04 08:15 N 6 9.00 Fair CLR 60.8 60.8 100% 29.9 0.0
04 07:55 NW 6 10.00 Fair CLR 60.8 60.8 100% 29.9 0.0
04 07:35 NW 5 10.00 Fair CLR 60.8 60.8 100% 29.88 0.0
04 07:15 Calm 10.00 Fair CLR 59 59 100% 29.88 0.0
04 06:55 NW 5 10.00 Fair CLR 57.2 57.2 100% 29.87 0.0
04 06:35 Calm 8.00 Fair CLR 57.2 57.2 100% 29.87 0.0
04 06:15 Calm 9.00 Fair CLR 57.2 57.2 100% 29.87 0.0
04 05:55 Calm 7.00 Fair CLR 60.8 60.8 100% 29.85 0.0
04 05:35 Calm 9.00 Fair CLR 59 59 100% 29.85 0.0
04 05:15 N 5 9.00 Fair CLR 60.8 60.8 100% 29.84 0.0
04 04:55 Calm 10.00 Fair CLR 62.6 62.6 100% 29.84 0.0
04 04:35 N 5 10.00 Fair CLR 62.6 62.6 100% 29.83 0.0
04 04:15 N 6 10.00 Fair CLR 62.6 62.6 100% 29.82 0.0
04 03:55 NE 6 10.00 Fair CLR 64.4 64.4 100% 29.81 0.0
04 03:35 N 6 10.00 Fair CLR 64.4 64.4 100% 29.81 0.0
04 03:15 NE 6 10.00 Fair CLR 64.4 64.4 100% 29.81 0.0
04 02:55 N 6 10.00 Fair CLR 66.2 66.2 100% 29.81 0.0
04 02:35 N 7 10.00 Fair CLR 66.2 66.2 100% 29.81 0.0
04 02:15 N 10 10.00 Fair CLR 66.2 66.2 100% 29.8 0.0
04 01:55 N 9 10.00 Fair CLR 66.2 66.2 100% 29.8 0.0
04 01:35 N 10 10.00 Fair CLR 68 68 100% 29.8 0.0
04 01:15 N 12 10.00 Fair CLR 68 68 100% 29.79 0.0
04 00:55 N 9 10.00 Fair CLR 68 68 100% 29.78 0.0
04 00:35 N 12 10.00 Fair CLR 68 68 100% 29.77 0.0
04 00:15 N 13 10.00 Fair CLR 69.8 69.8 100% 29.77 0.0
03 23:55 N 14 10.00 Fair CLR 69.8 69.8 100% 29.76 0.0
03 23:35 NW 17 10.00 Fair CLR 69.8 69.8 100% 29.76 0.0
03 23:15 NW 6 10.00 Fair CLR 71.6 71.6 100% 29.74 0.0
03 22:35 NE 5 10.00 Fair CLR 73.4 73.4 100% 29.73 0.0
03 22:15 E 7 10.00 Fair CLR 73.4 73.4 100% 29.72 0.0
03 21:55 NE 5 10.00 Fair CLR 73.4 73.4 100% 29.72 0.0
03 21:35 NE 6 10.00 Fair CLR 73.4 73.4 100% 29.72 0.0
03 21:15 NE 5 10.00 Fair CLR 73.4 73.4 100% 29.72 0.0
03 20:55 NE 7 10.00 Fair CLR 73.4 73.4 100% 29.71 0.0
03 20:35 E 9 10.00 Fair CLR 73.4 73.4 100% 29.7 0.0
03 20:15 E 10 10.00 Fair CLR 75.2 75.2 100% 73 29.69 0.0
03 19:55 E 12 G 18 10.00 Fair CLR 75.2 75.2 100% 73 29.69 0.0
03 19:35 NE 12 G 20 10.00 Fair CLR 77 77 100% 78 29.69 0.0
03 19:15 E 10 G 17 10.00 Thunderstorm in Vicinity CLR 77 77 100% 78 29.69 0.0
03 18:55 N 15 10.00 Fair CLR 78.8 78.8 100% 83 29.71 0.0 0.03
03 18:35 NE 6 G 15 4.00 Light Rain Fog/Mist CLR 78.8 78.8 100% 83 29.69 0.0
03 18:15 NE 12 G 18 10.00 Fair CLR 84.2 68 58% 87 29.67 0.0
03 17:55 NE 12 G 17 10.00 Fair CLR 84.2 68 58% 87 29.66 0.0
Date Time (cdt) Wind (mph) Vis. (mi.) Weather Sky Cond. Air Dwpt Max. Min. Relative Humidity Wind Chill (°F) Heat Index (°F) altimeter (in) sea level (mb) 1 hr 3 hr 6 hr
6 hour
Temperature (ºF) Pressure Precipitation (in)